Time;durP1;ratioP1;P1;durP2;ratioP2;P2;SDS_P1;SDS_P2;PMS_P1;PMS_P2;Temp;Humidity;BMP_temperature;BMP_pressure;BME280_temperature;BME280_humidity;BME280_pressure;Samples;Min_cycle;Max_cycle;Signal;HPM_P1;HPM_P2
2022/04/08 00:01:38;;;;;;;3.75;1.67;;;8.10;99.90;;;;;;5011681;28;20866;-72
2022/04/08 00:04:04;;;;;;;4.32;1.83;;;8.10;99.90;;;;;;5012878;28;20177;-71
2022/04/08 00:06:30;;;;;;;2.75;1.60;;;8.10;99.90;;;;;;5014092;28;20211;-72
2022/04/08 00:08:56;;;;;;;3.35;1.50;;;8.10;99.90;;;;;;5007156;28;20205;-72
2022/04/08 00:11:21;;;;;;;3.28;1.80;;;8.10;99.90;;;;;;5012542;28;20181;-70
2022/04/08 00:13:51;;;;;;;2.97;1.88;;;8.00;99.90;;;;;;5012296;28;20212;-72
2022/04/08 00:16:16;;;;;;;2.97;1.52;;;8.00;99.90;;;;;;5009735;28;20220;-72
2022/04/08 00:18:42;;;;;;;2.75;1.13;;;8.10;99.90;;;;;;5012127;28;20185;-71
2022/04/08 00:21:08;;;;;;;1.92;1.13;;;8.10;99.90;;;;;;5010887;28;20186;-71
2022/04/08 00:23:34;;;;;;;0.98;0.98;;;8.10;99.90;;;;;;5014676;28;20188;-71
2022/04/08 00:25:59;;;;;;;1.40;1.30;;;8.00;99.90;;;;;;5012955;28;20220;-71
2022/04/08 00:28:25;;;;;;;5.18;1.50;;;8.00;99.90;;;;;;5014224;28;20750;-71
2022/04/08 00:30:51;;;;;;;2.42;0.73;;;7.90;99.90;;;;;;5014286;28;20258;-72
2022/04/08 00:33:16;;;;;;;5.13;1.52;;;7.90;99.90;;;;;;5012207;28;20185;-72
2022/04/08 00:35:42;;;;;;;2.83;1.05;;;7.90;99.90;;;;;;5010762;28;20252;-71
2022/04/08 00:38:08;;;;;;;3.35;0.95;;;8.00;99.90;;;;;;5011179;28;20262;-71
2022/04/08 00:40:34;;;;;;;2.53;1.45;;;8.00;99.90;;;;;;5013361;28;20185;-72
2022/04/08 00:43:13;;;;;;;2.53;1.20;;;7.90;99.90;;;;;;5012110;28;20177;-71
2022/04/08 00:45:39;;;;;;;1.10;0.98;;;7.90;99.90;;;;;;5013010;28;20189;-72
2022/04/08 00:48:07;;;;;;;2.78;1.50;;;7.90;99.90;;;;;;5013965;28;20277;-70
2022/04/08 00:50:38;;;;;;;3.63;1.40;;;7.90;99.90;;;;;;5015173;28;20235;-70
2022/04/08 00:53:05;;;;;;;1.38;0.65;;;7.90;99.90;;;;;;5013797;28;20174;-72
2022/04/08 00:55:31;;;;;;;3.03;1.10;;;8.00;99.90;;;;;;5013190;28;20189;-71
2022/04/08 00:58:00;;;;;;;1.60;1.13;;;8.00;99.90;;;;;;5009020;28;20205;-72
2022/04/08 01:00:27;;;;;;;1.63;0.90;;;8.00;99.90;;;;;;5011138;28;20181;-70
2022/04/08 01:02:52;;;;;;;1.85;1.40;;;8.10;99.90;;;;;;5015619;28;20178;-70
2022/04/08 01:05:18;;;;;;;3.17;1.52;;;8.10;99.90;;;;;;5008027;28;20186;-70
2022/04/08 01:07:43;;;;;;;2.47;0.70;;;8.10;99.90;;;;;;5013910;28;20286;-71
2022/04/08 01:10:09;;;;;;;2.72;1.33;;;8.10;99.90;;;;;;5005658;28;20555;-71
2022/04/08 01:12:35;;;;;;;2.60;0.95;;;8.10;99.90;;;;;;5013297;28;20655;-71
2022/04/08 01:15:00;;;;;;;3.70;1.20;;;8.10;99.90;;;;;;5013414;28;20173;-71
2022/04/08 01:17:26;;;;;;;2.15;1.17;;;8.10;99.90;;;;;;5011970;28;20227;-71
2022/04/08 01:19:52;;;;;;;1.27;0.95;;;8.10;99.90;;;;;;5006302;28;20184;-70
2022/04/08 01:22:19;;;;;;;4.32;0.88;;;8.10;99.90;;;;;;5012699;28;20201;-70
2022/04/08 01:24:50;;;;;;;1.90;1.23;;;8.10;99.90;;;;;;5014051;28;20599;-70
2022/04/08 01:27:19;;;;;;;3.10;1.40;;;8.10;99.90;;;;;;5012361;28;20220;-71
2022/04/08 01:29:47;;;;;;;3.03;1.30;;;8.00;99.90;;;;;;5014938;28;20255;-70
2022/04/08 01:32:13;;;;;;;2.70;1.15;;;8.00;99.90;;;;;;5009202;28;20178;-70
2022/04/08 01:34:39;;;;;;;2.13;1.20;;;8.10;99.90;;;;;;5009563;28;20193;-71
2022/04/08 01:37:04;;;;;;;3.78;1.70;;;8.10;99.90;;;;;;5010989;28;20213;-71
2022/04/08 01:39:30;;;;;;;2.10;0.90;;;8.00;99.90;;;;;;5012978;28;20184;-72
2022/04/08 01:41:56;;;;;;;1.55;0.82;;;8.00;99.90;;;;;;5011355;28;20181;-72
2022/04/08 01:44:21;;;;;;;4.30;1.50;;;8.00;99.90;;;;;;5013910;28;20193;-71
2022/04/08 01:46:47;;;;;;;2.97;1.40;;;8.00;99.90;;;;;;5003892;28;20201;-70
2022/04/08 01:49:12;;;;;;;3.28;1.95;;;8.00;99.90;;;;;;5009921;28;20304;-71
2022/04/08 01:51:38;;;;;;;3.05;1.05;;;8.10;99.90;;;;;;5010872;28;20200;-70
2022/04/08 01:54:04;;;;;;;3.80;1.50;;;8.10;99.90;;;;;;5008008;28;20285;-72
2022/04/08 01:56:29;;;;;;;2.28;1.02;;;8.00;99.90;;;;;;5006789;28;20260;-71
2022/04/08 01:58:55;;;;;;;0.88;0.55;;;8.00;99.90;;;;;;5001315;28;20206;-72
2022/04/08 02:01:20;;;;;;;3.25;1.20;;;8.00;99.90;;;;;;5009675;28;20265;-72
2022/04/08 02:03:46;;;;;;;4.45;1.20;;;8.00;99.90;;;;;;5008563;28;20180;-72
2022/04/08 02:06:12;;;;;;;2.88;1.40;;;8.10;99.90;;;;;;5004606;28;20197;-72
2022/04/08 02:08:39;;;;;;;3.03;1.50;;;8.00;99.90;;;;;;5009230;28;20208;-72
2022/04/08 02:11:04;;;;;;;3.72;1.63;;;7.90;99.90;;;;;;5007584;28;20627;-71
2022/04/08 02:13:30;;;;;;;5.30;1.52;;;7.90;99.90;;;;;;5010973;28;20259;-71
2022/04/08 02:15:55;;;;;;;1.08;1.02;;;7.90;99.90;;;;;;5004931;28;20261;-71
2022/04/08 02:18:21;;;;;;;1.90;1.48;;;7.90;99.90;;;;;;5006631;28;20182;-71
2022/04/08 02:20:48;;;;;;;2.92;1.23;;;8.00;99.90;;;;;;5010131;28;20714;-71
2022/04/08 02:23:14;;;;;;;3.25;1.30;;;8.00;99.90;;;;;;5007066;28;20173;-71
2022/04/08 02:25:39;;;;;;;1.35;1.20;;;8.00;99.90;;;;;;5008971;28;20280;-71
2022/04/08 02:28:05;;;;;;;2.08;1.30;;;7.90;99.90;;;;;;5006065;28;20654;-71
2022/04/08 02:30:31;;;;;;;1.38;0.82;;;8.00;99.90;;;;;;5009744;28;20188;-71
2022/04/08 02:32:57;;;;;;;1.15;1.13;;;7.90;99.90;;;;;;5009201;28;20237;-71
2022/04/08 02:35:23;;;;;;;2.95;1.33;;;7.80;99.90;;;;;;5006099;28;20648;-71
2022/04/08 02:37:49;;;;;;;1.48;0.70;;;7.80;99.90;;;;;;5007055;28;20197;-71
2022/04/08 02:40:14;;;;;;;4.03;1.20;;;7.90;99.90;;;;;;5010477;28;20233;-71
2022/04/08 02:42:40;;;;;;;2.40;1.38;;;7.90;99.90;;;;;;5006118;28;20184;-71
2022/04/08 02:45:06;;;;;;;2.35;0.98;;;7.80;99.90;;;;;;5002021;28;20603;-72
2022/04/08 02:47:32;;;;;;;1.90;0.98;;;7.80;99.90;;;;;;5008023;28;20196;-72
2022/04/08 02:49:57;;;;;;;0.65;0.65;;;7.80;99.90;;;;;;5009766;28;20247;-72
2022/04/08 02:52:23;;;;;;;2.13;1.10;;;7.80;99.90;;;;;;5008162;28;20620;-72
2022/04/08 02:54:49;;;;;;;2.97;1.40;;;7.70;99.90;;;;;;5007216;28;20199;-72
2022/04/08 02:57:14;;;;;;;1.10;1.00;;;7.70;99.90;;;;;;5008645;28;20679;-72
2022/04/08 02:59:40;;;;;;;2.70;1.20;;;7.60;99.90;;;;;;5010413;28;20208;-72
2022/04/08 03:02:05;;;;;;;2.88;1.20;;;7.60;99.90;;;;;;5008706;28;20276;-72
2022/04/08 03:04:31;;;;;;;0.60;0.55;;;7.70;99.90;;;;;;5006190;28;20180;-72
2022/04/08 03:06:58;;;;;;;2.83;1.02;;;7.70;99.90;;;;;;5006875;28;20696;-71
2022/04/08 03:09:24;;;;;;;4.22;1.85;;;7.70;99.90;;;;;;5009504;28;20209;-72
2022/04/08 03:11:49;;;;;;;1.25;0.77;;;7.70;99.90;;;;;;5008725;28;20181;-72
2022/04/08 03:14:15;;;;;;;1.45;1.00;;;7.70;99.90;;;;;;5005283;28;20253;-71
2022/04/08 03:16:40;;;;;;;2.67;1.27;;;7.60;99.90;;;;;;5007465;28;20206;-72
2022/04/08 03:19:06;;;;;;;3.22;0.95;;;7.60;99.90;;;;;;5010435;28;20261;-72
2022/04/08 03:21:32;;;;;;;4.57;1.55;;;7.50;99.90;;;;;;5007722;28;20189;-72
2022/04/08 03:23:58;;;;;;;1.50;1.30;;;7.40;99.90;;;;;;5006757;28;20182;-72
2022/04/08 03:26:24;;;;;;;2.88;1.55;;;7.30;99.90;;;;;;5008657;28;20212;-72
2022/04/08 03:28:49;;;;;;;1.38;1.23;;;7.40;99.90;;;;;;5004020;28;20201;-71
2022/04/08 03:31:15;;;;;;;1.77;1.00;;;7.40;99.90;;;;;;5005656;28;20653;-71
2022/04/08 03:33:42;;;;;;;1.27;1.13;;;7.40;99.90;;;;;;5006358;28;20169;-71
2022/04/08 03:36:08;;;;;;;1.20;1.10;;;7.40;99.90;;;;;;5005935;28;20209;-72
2022/04/08 03:38:34;;;;;;;2.90;1.02;;;7.30;99.90;;;;;;5010179;28;20741;-72
2022/04/08 03:41:00;;;;;;;2.08;1.63;;;7.40;99.90;;;;;;5006776;28;20183;-71
2022/04/08 03:43:27;;;;;;;1.67;1.17;;;7.40;99.90;;;;;;5009134;28;20545;-72
2022/04/08 03:45:53;;;;;;;2.85;0.95;;;7.50;99.90;;;;;;5003904;28;20174;-73
2022/04/08 03:48:18;;;;;;;1.13;0.95;;;7.50;99.90;;;;;;5013275;28;20207;-68
2022/04/08 03:50:44;;;;;;;1.70;1.53;;;7.50;99.90;;;;;;5011232;28;20829;-72
2022/04/08 03:53:12;;;;;;;0.60;0.60;;;7.50;99.90;;;;;;5006788;28;20236;-70
2022/04/08 03:55:41;;;;;;;2.13;1.00;;;7.40;99.90;;;;;;5009151;28;20177;-70
2022/04/08 03:58:09;;;;;;;2.33;1.27;;;7.40;99.90;;;;;;4996633;28;20181;-72
2022/04/08 04:00:35;;;;;;;4.25;1.50;;;7.40;99.90;;;;;;5011175;28;20263;-72
2022/04/08 04:03:00;;;;;;;2.25;0.90;;;7.30;99.90;;;;;;5009707;28;20637;-72
2022/04/08 04:05:26;;;;;;;4.00;1.00;;;7.20;99.90;;;;;;5008560;28;20244;-72
2022/04/08 04:07:52;;;;;;;2.20;1.50;;;7.20;99.90;;;;;;5005368;28;20212;-71
2022/04/08 04:10:17;;;;;;;2.83;1.45;;;7.20;99.90;;;;;;5006311;28;20178;-71
2022/04/08 04:12:43;;;;;;;5.45;1.65;;;7.10;99.90;;;;;;5011540;28;20177;-71
2022/04/08 04:15:09;;;;;;;4.43;0.90;;;7.20;99.90;;;;;;5002157;28;20256;-71
2022/04/08 04:17:36;;;;;;;3.70;1.10;;;7.10;99.90;;;;;;5000140;28;20303;-71
2022/04/08 04:20:04;;;;;;;1.63;1.13;;;7.10;99.90;;;;;;5006448;28;20174;-71
2022/04/08 04:22:29;;;;;;;1.47;1.20;;;7.00;99.90;;;;;;5011417;28;20737;-71
2022/04/08 04:24:55;;;;;;;1.37;1.03;;;6.90;99.90;;;;;;5009120;28;20182;-71
2022/04/08 04:27:20;;;;;;;3.23;1.30;;;6.80;99.90;;;;;;5001178;28;20221;-70
2022/04/08 04:29:46;;;;;;;1.13;1.03;;;6.80;99.90;;;;;;5004847;28;20189;-72
2022/04/08 04:32:12;;;;;;;1.03;1.00;;;6.90;99.90;;;;;;5001520;28;20198;-70
2022/04/08 04:34:38;;;;;;;2.93;1.60;;;6.90;99.90;;;;;;5007686;28;20185;-70
2022/04/08 04:37:08;;;;;;;4.00;1.40;;;6.80;99.90;;;;;;5005193;28;20633;-70
2022/04/08 04:39:34;;;;;;;2.00;1.17;;;6.70;99.90;;;;;;5001413;28;20227;-70
2022/04/08 04:42:00;;;;;;;2.53;1.63;;;6.80;99.90;;;;;;5003539;28;20267;-70
2022/04/08 04:44:27;;;;;;;3.20;1.00;;;6.80;99.90;;;;;;5005495;28;20542;-70
2022/04/08 04:46:54;;;;;;;3.10;1.57;;;6.80;99.90;;;;;;5004029;28;20189;-70
2022/04/08 04:49:21;;;;;;;1.65;1.17;;;6.80;99.90;;;;;;5007368;28;20238;-71
2022/04/08 04:51:46;;;;;;;2.10;1.38;;;6.90;99.90;;;;;;5004818;28;20184;-71
2022/04/08 04:54:12;;;;;;;2.78;1.33;;;6.90;99.90;;;;;;5005523;28;20178;-72
2022/04/08 04:56:37;;;;;;;2.57;1.20;;;7.00;99.90;;;;;;5002758;28;20250;-71
2022/04/08 04:59:03;;;;;;;2.70;1.10;;;7.00;99.90;;;;;;5000361;28;20185;-70
2022/04/08 05:01:29;;;;;;;4.97;1.43;;;7.00;99.90;;;;;;5005548;28;20628;-71
2022/04/08 05:03:54;;;;;;;4.20;0.97;;;7.00;99.90;;;;;;5000542;28;20253;-72
2022/04/08 05:06:20;;;;;;;2.25;1.13;;;7.00;99.90;;;;;;4998845;28;20216;-71
2022/04/08 05:08:45;;;;;;;2.13;0.73;;;7.00;99.90;;;;;;5001316;28;20205;-71
2022/04/08 05:11:11;;;;;;;2.67;1.30;;;7.00;99.90;;;;;;4996264;28;20265;-71
2022/04/08 05:13:37;;;;;;;1.60;0.95;;;7.00;99.90;;;;;;5004925;28;20246;-71
2022/04/08 05:16:03;;;;;;;2.90;0.75;;;7.00;99.90;;;;;;5004960;28;20245;-71
2022/04/08 05:18:28;;;;;;;2.42;1.60;;;7.00;99.90;;;;;;5005070;28;20202;-70
2022/04/08 05:20:54;;;;;;;3.15;1.38;;;7.10;99.90;;;;;;5009084;28;20268;-70
2022/04/08 05:23:20;;;;;;;2.35;1.35;;;7.10;99.90;;;;;;5009556;28;20257;-73
2022/04/08 05:25:46;;;;;;;4.88;1.65;;;7.20;99.90;;;;;;5008576;28;20189;-73
2022/04/08 05:28:12;;;;;;;3.55;1.20;;;7.20;99.90;;;;;;5010703;28;20205;-72
2022/04/08 05:30:38;;;;;;;3.53;1.23;;;7.30;99.90;;;;;;5002363;28;20177;-71
2022/04/08 05:33:04;;;;;;;3.33;1.58;;;7.30;99.90;;;;;;5003730;28;20188;-74
2022/04/08 05:35:29;;;;;;;4.30;1.60;;;7.40;99.90;;;;;;5005126;28;20199;-72
2022/04/08 05:37:55;;;;;;;2.40;1.52;;;7.50;99.90;;;;;;5007310;28;20223;-73
2022/04/08 05:40:24;;;;;;;1.02;0.90;;;7.70;99.90;;;;;;5007744;28;20223;-73
2022/04/08 05:42:50;;;;;;;2.65;1.75;;;7.80;99.90;;;;;;5007946;28;20204;-74
2022/04/08 05:45:18;;;;;;;6.93;1.45;;;8.00;99.90;;;;;;5004089;28;20194;-73
2022/04/08 05:47:47;;;;;;;4.50;1.58;;;8.10;99.90;;;;;;5006766;28;20209;-73
2022/04/08 05:50:13;;;;;;;2.58;1.40;;;8.10;99.90;;;;;;5009603;28;20173;-73
2022/04/08 05:52:39;;;;;;;3.97;1.33;;;8.10;99.90;;;;;;5009687;28;20683;-72
2022/04/08 05:55:05;;;;;;;1.20;1.05;;;8.20;99.90;;;;;;5009852;28;20190;-72
2022/04/08 05:57:41;;;;;;;0.88;0.70;;;8.20;99.90;;;;;;5003324;28;20208;-74
2022/04/08 06:00:13;;;;;;;1.33;1.00;;;8.40;99.90;;;;;;5008194;28;20573;-74
2022/04/08 06:02:40;;;;;;;4.00;1.48;;;8.50;99.90;;;;;;5009663;28;20173;-73
2022/04/08 06:05:07;;;;;;;1.95;1.40;;;8.60;99.90;;;;;;5001215;28;20178;-72
2022/04/08 06:07:33;;;;;;;2.13;1.35;;;8.60;99.90;;;;;;5009209;28;20204;-74
2022/04/08 06:10:02;;;;;;;1.48;1.25;;;8.70;99.90;;;;;;5026209;28;20212;-73
2022/04/08 06:12:28;;;;;;;4.22;1.50;;;8.80;99.90;;;;;;5000138;28;20256;-74
2022/04/08 06:14:54;;;;;;;1.60;1.05;;;8.80;99.90;;;;;;5007687;28;20211;-75
2022/04/08 06:17:20;;;;;;;2.95;1.40;;;8.90;99.90;;;;;;5022193;28;20206;-74
2022/04/08 06:19:47;;;;;;;0.85;0.63;;;8.90;99.90;;;;;;5002428;28;20656;-73
2022/04/08 06:22:13;;;;;;;3.63;1.42;;;9.00;99.90;;;;;;4998026;28;20182;-71
2022/04/08 06:24:39;;;;;;;1.52;0.95;;;9.00;99.90;;;;;;5011783;28;20186;-72
2022/04/08 06:27:05;;;;;;;3.47;1.17;;;9.00;99.90;;;;;;5006786;28;20646;-72
2022/04/08 06:29:31;;;;;;;3.03;1.23;;;9.10;99.90;;;;;;5007168;28;20260;-73
2022/04/08 06:31:57;;;;;;;2.78;1.50;;;9.10;99.90;;;;;;4999926;28;20591;-75
2022/04/08 06:34:22;;;;;;;2.03;1.40;;;9.20;99.90;;;;;;5002448;28;20185;-74
2022/04/08 06:36:48;;;;;;;3.65;1.30;;;9.40;99.90;;;;;;5006866;28;20254;-78
2022/04/08 06:39:14;;;;;;;1.60;1.05;;;9.40;99.90;;;;;;5007305;28;20852;-72
2022/04/08 06:41:39;;;;;;;4.18;1.30;;;9.40;99.90;;;;;;5003015;28;20181;-72
2022/04/08 06:44:05;;;;;;;3.00;1.65;;;9.40;99.90;;;;;;5009504;28;20212;-72
2022/04/08 06:46:31;;;;;;;0.60;0.60;;;9.30;99.90;;;;;;5021008;28;20272;-73
2022/04/08 06:49:02;;;;;;;7.50;1.92;;;9.10;99.90;;;;;;5007280;28;20259;-72
2022/04/08 06:51:29;;;;;;;5.60;1.17;;;9.00;99.90;;;;;;4999429;28;20236;-73
2022/04/08 06:53:55;;;;;;;5.55;1.33;;;9.10;99.90;;;;;;5008525;28;20554;-74
2022/04/08 06:56:20;;;;;;;2.75;1.20;;;9.20;99.90;;;;;;5013328;28;20205;-74
2022/04/08 06:58:46;;;;;;;1.65;1.50;;;9.40;99.90;;;;;;5009034;28;20268;-72
2022/04/08 07:01:11;;;;;;;3.10;1.40;;;9.60;99.90;;;;;;4996875;28;20268;-73
2022/04/08 07:03:37;;;;;;;2.00;1.25;;;9.70;99.90;;;;;;5007654;28;20683;-70
2022/04/08 07:06:03;;;;;;;2.55;1.50;;;9.80;99.90;;;;;;4998700;28;20283;-71
2022/04/08 07:08:29;;;;;;;1.98;1.42;;;9.70;99.90;;;;;;5004116;28;20240;-72
2022/04/08 07:10:54;;;;;;;2.28;1.20;;;9.80;99.90;;;;;;5005939;28;20205;-71
2022/04/08 07:13:20;;;;;;;1.10;1.00;;;9.80;99.90;;;;;;5004158;28;20261;-73
2022/04/08 07:15:46;;;;;;;2.00;0.98;;;9.90;99.90;;;;;;5014798;28;20545;-72
2022/04/08 07:18:11;;;;;;;2.00;1.00;;;10.00;99.90;;;;;;5006206;28;20657;-73
2022/04/08 07:20:37;;;;;;;2.22;0.98;;;10.20;99.90;;;;;;5013533;28;20180;-74
2022/04/08 07:23:03;;;;;;;2.35;1.38;;;10.30;99.90;;;;;;5006427;28;20182;-74
2022/04/08 07:25:29;;;;;;;3.25;1.55;;;10.40;99.90;;;;;;5014521;28;20192;-74
2022/04/08 07:27:58;;;;;;;4.15;1.85;;;10.50;99.90;;;;;;5009030;28;20219;-70
2022/04/08 07:30:25;;;;;;;7.05;1.52;;;10.60;99.90;;;;;;5011533;28;20260;-73
2022/04/08 07:32:54;;;;;;;2.15;1.33;;;10.70;99.90;;;;;;5014948;28;20177;-72
2022/04/08 07:35:25;;;;;;;3.85;1.15;;;10.80;99.90;;;;;;5004718;28;20174;-71
2022/04/08 07:37:52;;;;;;;7.15;1.73;;;11.10;99.90;;;;;;5010132;28;20207;-70
2022/04/08 07:40:19;;;;;;;3.58;1.77;;;11.30;99.90;;;;;;5011353;28;20193;-71
2022/04/08 07:42:44;;;;;;;4.07;1.65;;;11.40;99.90;;;;;;5005585;28;20174;-72
2022/04/08 07:45:11;;;;;;;6.13;1.77;;;11.60;99.90;;;;;;5013447;28;20670;-73
2022/04/08 07:47:37;;;;;;;4.70;1.55;;;11.60;99.90;;;;;;5006958;28;20228;-73
2022/04/08 07:50:10;;;;;;;2.88;1.13;;;11.70;99.90;;;;;;5008055;28;20178;-75
2022/04/08 07:52:37;;;;;;;3.25;1.38;;;11.80;99.90;;;;;;5008730;28;20188;-70
2022/04/08 07:55:03;;;;;;;0.75;0.70;;;11.80;99.90;;;;;;5010724;28;20178;-75
2022/04/08 07:57:29;;;;;;;3.45;1.52;;;11.90;99.90;;;;;;5009467;28;20567;-75
2022/04/08 07:59:55;;;;;;;2.03;0.75;;;12.00;99.90;;;;;;5008478;28;20186;-76
2022/04/08 08:02:21;;;;;;;1.58;0.95;;;12.10;99.90;;;;;;5010421;28;20220;-73
2022/04/08 08:04:47;;;;;;;3.17;1.15;;;12.10;99.90;;;;;;5012298;28;20197;-77
2022/04/08 08:07:13;;;;;;;2.17;0.95;;;12.20;99.50;;;;;;5007612;28;20210;-71
2022/04/08 08:09:38;;;;;;;1.42;0.82;;;12.30;98.10;;;;;;5015588;28;20219;-75
2022/04/08 08:12:04;;;;;;;3.75;1.20;;;12.30;99.00;;;;;;5006028;28;20170;-71
2022/04/08 08:14:30;;;;;;;1.35;1.25;;;12.40;98.10;;;;;;5011696;28;20654;-74
2022/04/08 08:16:56;;;;;;;1.75;1.15;;;12.50;97.90;;;;;;5011787;28;20201;-69
2022/04/08 08:19:23;;;;;;;1.80;1.13;;;12.60;96.40;;;;;;5011806;28;20200;-70
2022/04/08 08:21:49;;;;;;;3.63;1.17;;;12.50;97.30;;;;;;5007430;28;20685;-70
2022/04/08 08:24:14;;;;;;;3.50;1.10;;;12.60;98.30;;;;;;5008256;28;20185;-69
2022/04/08 08:26:40;;;;;;;2.63;1.17;;;12.90;95.20;;;;;;5008087;28;20223;-70
2022/04/08 08:29:06;;;;;;;2.47;1.52;;;13.10;92.80;;;;;;5009070;28;20740;-70
2022/04/08 08:31:31;;;;;;;2.47;1.15;;;13.00;92.30;;;;;;5006411;28;20647;-69
2022/04/08 08:33:57;;;;;;;3.05;0.95;;;13.00;90.00;;;;;;5003150;28;20244;-71
2022/04/08 08:36:23;;;;;;;4.40;1.65;;;13.10;90.60;;;;;;5012829;28;20210;-72
2022/04/08 08:38:52;;;;;;;1.45;0.85;;;13.20;87.20;;;;;;5009323;28;20212;-72
2022/04/08 08:41:19;;;;;;;3.13;1.20;;;13.20;88.00;;;;;;5010032;28;20208;-72
2022/04/08 08:43:47;;;;;;;1.65;0.85;;;13.20;86.20;;;;;;5009425;28;20181;-72
2022/04/08 08:46:15;;;;;;;5.32;1.38;;;13.40;82.00;;;;;;5004159;28;20287;-72
2022/04/08 08:48:44;;;;;;;2.47;0.73;;;13.50;83.60;;;;;;5006235;28;20224;-72
2022/04/08 08:51:11;;;;;;;5.00;1.27;;;13.60;83.00;;;;;;5003752;28;20264;-71
2022/04/08 08:53:37;;;;;;;4.07;1.27;;;13.70;85.50;;;;;;5004270;28;20207;-71
2022/04/08 08:56:06;;;;;;;1.08;1.05;;;13.80;80.70;;;;;;5004355;28;20197;-76
2022/04/08 08:58:34;;;;;;;2.80;1.33;;;14.00;77.40;;;;;;5001567;28;20670;-75
2022/04/08 09:01:00;;;;;;;1.58;1.13;;;14.20;76.90;;;;;;5009274;28;20170;-72
2022/04/08 09:03:29;;;;;;;0.68;0.63;;;14.00;76.90;;;;;;5011935;28;20185;-73
2022/04/08 09:06:03;;;;;;;2.45;1.35;;;14.00;75.60;;;;;;5005647;28;20189;-75
2022/04/08 09:08:34;;;;;;;1.40;1.20;;;14.10;77.10;;;;;;5008027;28;20202;-74
2022/04/08 09:11:00;;;;;;;1.17;1.17;;;14.50;75.80;;;;;;5013218;28;20691;-74
2022/04/08 09:13:28;;;;;;;1.80;1.08;;;14.60;74.60;;;;;;5003236;28;20535;-72
2022/04/08 09:15:59;;;;;;;4.05;1.05;;;14.60;75.50;;;;;;5012457;28;20173;-74
2022/04/08 09:18:32;;;;;;;3.42;1.10;;;14.60;75.80;;;;;;5012983;28;20256;-74
2022/04/08 09:20:58;;;;;;;3.97;1.45;;;14.60;78.80;;;;;;5009945;28;20170;-74
2022/04/08 09:23:24;;;;;;;1.85;1.40;;;14.90;78.10;;;;;;5003243;28;20186;-75
2022/04/08 09:26:03;;;;;;;1.00;1.00;;;14.80;79.60;;;;;;5011081;28;20315;-75
2022/04/08 09:28:40;;;;;;;1.67;1.17;;;15.00;80.00;;;;;;5011984;28;20198;-72
2022/04/08 09:31:16;;;;;;;4.05;1.25;;;14.70;83.00;;;;;;5015390;28;20256;-73
2022/04/08 09:33:53;;;;;;;2.28;0.95;;;14.50;84.90;;;;;;5003197;28;20671;-73
2022/04/08 09:36:30;;;;;;;2.80;1.23;;;14.50;84.80;;;;;;5012942;28;20577;-72
2022/04/08 09:38:56;;;;;;;1.88;1.13;;;14.10;85.10;;;;;;5011212;28;20196;-71
2022/04/08 09:41:40;;;;;;;3.08;1.35;;;13.90;85.50;;;;;;5005207;28;20645;-73
2022/04/08 09:44:10;;;;;;;3.38;0.77;;;13.80;89.20;;;;;;5013509;28;20180;-73
2022/04/08 09:46:37;;;;;;;1.33;0.90;;;13.50;91.30;;;;;;5006060;28;20291;-73
2022/04/08 09:49:06;;;;;;;2.28;1.23;;;13.20;92.00;;;;;;5009413;28;20205;-73
2022/04/08 09:51:39;;;;;;;1.73;0.88;;;12.70;93.70;;;;;;5007375;28;20192;-72
2022/04/08 09:54:08;;;;;;;2.35;1.17;;;12.50;96.70;;;;;;5013249;28;20193;-74
2022/04/08 09:56:35;;;;;;;4.45;1.42;;;12.50;99.50;;;;;;5009036;28;20207;-73
2022/04/08 09:59:12;;;;;;;4.40;0.88;;;12.50;99.90;;;;;;5005594;28;20184;-74
2022/04/08 10:01:40;;;;;;;4.43;1.20;;;12.40;99.90;;;;;;5004272;28;20185;-73
2022/04/08 10:04:07;;;;;;;2.15;1.20;;;12.20;99.90;;;;;;5007676;28;20181;-73
2022/04/08 10:06:34;;;;;;;1.63;1.10;;;12.10;99.90;;;;;;5006260;28;20212;-72
2022/04/08 10:09:01;;;;;;;2.53;1.13;;;11.90;99.90;;;;;;5003674;28;20202;-73
2022/04/08 10:11:55;;;;;;;2.65;0.82;;;11.70;99.90;;;;;;5009441;28;20198;-73
2022/04/08 10:14:37;;;;;;;4.30;1.20;;;11.40;99.90;;;;;;5012934;28;20572;-72
2022/04/08 10:17:03;;;;;;;3.60;1.52;;;11.00;99.90;;;;;;4998547;28;20205;-74
2022/04/08 10:19:30;;;;;;;1.20;1.10;;;10.80;99.90;;;;;;5009310;28;20173;-74
2022/04/08 10:21:56;;;;;;;1.23;1.15;;;10.60;99.90;;;;;;5008819;28;20193;-75
2022/04/08 10:24:24;;;;;;;3.03;1.10;;;10.60;99.90;;;;;;5000553;28;20189;-74
2022/04/08 10:27:03;;;;;;;3.22;1.48;;;10.40;99.90;;;;;;5010414;28;20696;-74
2022/04/08 10:29:31;;;;;;;1.75;1.30;;;10.30;99.90;;;;;;5011078;28;20246;-75
2022/04/08 10:32:03;;;;;;;0.85;0.82;;;10.10;99.90;;;;;;4999218;28;20557;-74
2022/04/08 10:34:33;;;;;;;1.85;1.20;;;10.00;99.90;;;;;;5024434;28;20185;-74
2022/04/08 10:37:01;;;;;;;3.08;1.45;;;9.90;99.90;;;;;;5005469;28;20198;-74
2022/04/08 10:39:26;;;;;;;4.78;1.48;;;10.00;99.90;;;;;;5004635;28;20188;-74
2022/04/08 10:42:00;;;;;;;4.38;0.93;;;10.10;99.90;;;;;;5000830;28;20181;-74
2022/04/08 10:44:31;;;;;;;3.85;1.58;;;10.30;99.90;;;;;;5007546;28;20224;-71
2022/04/08 10:46:59;;;;;;;3.40;1.13;;;10.20;99.90;;;;;;5010891;28;20227;-77
2022/04/08 10:49:25;;;;;;;2.85;1.15;;;10.00;99.90;;;;;;5003369;28;20232;-73
2022/04/08 10:51:50;;;;;;;1.70;1.08;;;9.90;99.90;;;;;;5001711;28;20224;-72
2022/04/08 10:54:17;;;;;;;1.75;1.00;;;9.90;99.90;;;;;;5004149;28;20173;-72
2022/04/08 10:56:43;;;;;;;1.77;0.88;;;9.90;99.90;;;;;;5005855;28;20206;-72
2022/04/08 10:59:09;;;;;;;1.65;0.93;;;9.80;99.90;;;;;;4999998;28;20188;-72
2022/04/08 11:01:48;;;;;;;1.58;1.23;;;9.90;99.90;;;;;;5003841;28;20199;-72
2022/04/08 11:04:18;;;;;;;1.58;1.13;;;10.00;99.90;;;;;;4999308;28;20665;-72
2022/04/08 11:06:45;;;;;;;2.50;1.10;;;10.10;99.90;;;;;;5006585;28;20204;-73
2022/04/08 11:09:12;;;;;;;1.35;1.13;;;10.20;99.90;;;;;;5017138;28;20289;-73
2022/04/08 11:11:39;;;;;;;1.13;1.05;;;10.10;99.90;;;;;;5006788;28;20181;-72
2022/04/08 11:14:07;;;;;;;1.92;1.20;;;10.10;99.90;;;;;;5005144;28;20208;-70
2022/04/08 11:16:34;;;;;;;1.80;1.20;;;10.10;99.90;;;;;;5006322;28;20302;-70
2022/04/08 11:19:02;;;;;;;1.48;1.40;;;10.30;99.90;;;;;;5009732;28;20177;-70
2022/04/08 11:21:28;;;;;;;1.48;1.10;;;10.40;99.90;;;;;;5009857;28;20205;-70
2022/04/08 11:23:58;;;;;;;2.13;1.38;;;10.50;99.90;;;;;;5001041;28;20181;-70
2022/04/08 11:26:24;;;;;;;1.63;1.30;;;10.50;99.90;;;;;;5008285;28;20244;-70
2022/04/08 11:28:49;;;;;;;3.22;1.60;;;10.70;99.90;;;;;;5010051;28;20605;-70
2022/04/08 11:31:18;;;;;;;4.78;1.52;;;10.80;99.90;;;;;;5008826;28;20200;-70
2022/04/08 11:33:44;;;;;;;1.48;1.38;;;10.70;99.90;;;;;;5006575;28;20169;-73
2022/04/08 11:36:10;;;;;;;2.58;1.45;;;10.60;99.90;;;;;;5011865;28;20193;-72
2022/04/08 11:38:35;;;;;;;3.70;1.85;;;10.40;99.90;;;;;;5010106;28;20184;-72
2022/04/08 11:41:02;;;;;;;1.80;1.70;;;10.10;99.90;;;;;;5004352;28;20657;-72
2022/04/08 11:43:28;;;;;;;3.00;2.30;;;10.00;99.90;;;;;;5008372;28;20542;-73
2022/04/08 11:45:54;;;;;;;5.90;4.15;;;10.00;99.90;;;;;;5004501;28;20188;-73
2022/04/08 11:48:23;;;;;;;4.45;3.13;;;10.00;99.90;;;;;;5003327;28;20210;-73
2022/04/08 11:50:49;;;;;;;3.58;2.67;;;9.90;99.90;;;;;;5006268;28;20201;-73
2022/04/08 11:53:20;;;;;;;2.13;2.03;;;9.50;99.90;;;;;;5006095;28;20214;-73
2022/04/08 11:55:55;;;;;;;3.75;3.25;;;9.30;99.90;;;;;;5002088;28;20205;-73
2022/04/08 11:58:21;;;;;;;5.57;2.63;;;9.10;99.90;;;;;;5008746;28;20551;-73
2022/04/08 12:00:48;;;;;;;2.75;2.55;;;9.10;99.90;;;;;;5002887;28;20181;-74
2022/04/08 12:03:22;;;;;;;2.47;2.13;;;9.30;99.90;;;;;;5005843;28;20186;-73
2022/04/08 12:05:51;;;;;;;2.60;2.40;;;9.20;99.90;;;;;;5006498;28;20186;-73
2022/04/08 12:08:18;;;;;;;3.40;3.08;;;9.20;99.90;;;;;;5004915;28;20205;-73
2022/04/08 12:10:44;;;;;;;3.40;3.10;;;9.40;99.90;;;;;;5010900;28;20181;-73
2022/04/08 12:13:19;;;;;;;2.88;2.58;;;9.60;99.90;;;;;;5010486;28;20181;-73
2022/04/08 12:15:46;;;;;;;3.47;3.28;;;9.70;99.90;;;;;;5006186;28;20181;-73
2022/04/08 12:18:12;;;;;;;3.40;3.13;;;9.70;99.90;;;;;;5010428;28;20196;-72
2022/04/08 12:20:40;;;;;;;3.92;3.42;;;9.80;99.90;;;;;;5013097;28;20663;-74
2022/04/08 12:23:07;;;;;;;3.65;3.28;;;9.80;99.90;;;;;;5006442;28;20177;-74
2022/04/08 12:25:35;;;;;;;3.20;2.85;;;9.50;99.90;;;;;;5011825;28;20184;-74
2022/04/08 12:28:01;;;;;;;3.63;2.83;;;9.30;99.90;;;;;;5005361;28;20207;-75
2022/04/08 12:30:29;;;;;;;4.45;3.20;;;8.90;99.90;;;;;;5008845;28;20194;-72
2022/04/08 12:32:55;;;;;;;3.35;3.03;;;8.60;99.90;;;;;;5011463;28;20173;-72
2022/04/08 12:35:21;;;;;;;4.38;3.60;;;8.40;99.90;;;;;;5008070;28;20660;-73
2022/04/08 12:37:47;;;;;;;4.85;4.25;;;8.40;99.90;;;;;;5000736;28;20208;-73
2022/04/08 12:40:13;;;;;;;5.05;3.53;;;8.40;99.90;;;;;;4997281;28;20197;-73
2022/04/08 12:42:39;;;;;;;5.38;3.30;;;8.60;99.90;;;;;;5003701;28;20656;-73
2022/04/08 12:45:06;;;;;;;3.50;3.15;;;8.50;99.90;;;;;;5000775;28;20181;-72
2022/04/08 12:47:32;;;;;;;2.88;2.72;;;8.40;99.90;;;;;;4997205;28;20212;-73
2022/04/08 12:49:58;;;;;;;3.22;3.03;;;8.40;99.90;;;;;;5002341;28;20213;-73
2022/04/08 12:52:24;;;;;;;2.65;2.50;;;8.30;99.90;;;;;;4994261;28;20549;-73